createdAt,value
2023-04-12T00:02:18.685Z,60.09
2023-04-12T00:04:55.735Z,60.02
2023-04-12T00:07:24.599Z,60.67
2023-04-12T00:09:52.722Z,60.21
2023-04-12T00:12:20.809Z,60.19
2023-04-12T00:14:49.112Z,60.11
2023-04-12T00:17:19.203Z,59.33
2023-04-12T00:19:50.064Z,59.59
2023-04-12T00:22:18.166Z,59.31
2023-04-12T00:24:47.443Z,60.17
2023-04-12T00:27:15.458Z,60.82
2023-04-12T00:29:43.424Z,61.09
2023-04-12T00:32:11.847Z,62.30
2023-04-12T00:34:41.210Z,62.56
2023-04-12T00:37:09.245Z,62.37
2023-04-12T00:39:37.272Z,62.84
2023-04-12T00:42:06.107Z,62.70
2023-04-12T00:44:35.421Z,63.64
2023-04-12T00:47:05.415Z,63.75
2023-04-12T00:49:35.069Z,64.16
2023-04-12T00:52:07.228Z,64.97
2023-04-12T00:54:35.675Z,65.15
2023-04-12T00:57:04.409Z,65.35
2023-04-12T00:59:32.549Z,66.00
2023-04-12T01:02:01.340Z,65.69
2023-04-12T01:04:29.994Z,66.40
2023-04-12T01:07:15.364Z,66.70
2023-04-12T01:09:53.079Z,66.91
2023-04-12T01:12:33.676Z,67.83
2023-04-12T01:15:06.634Z,68.17
2023-04-12T01:17:42.098Z,69.10
2023-04-12T01:20:16.987Z,68.87
2023-04-12T01:23:11.984Z,70.31
2023-04-12T01:25:47.127Z,71.59
2023-04-12T01:28:22.248Z,71.82
2023-04-12T01:30:52.215Z,73.01
2023-04-12T01:33:21.786Z,73.75
2023-04-12T01:35:51.060Z,73.26
2023-04-12T01:38:19.199Z,74.06
2023-04-12T01:40:47.194Z,74.93
2023-04-12T01:43:16.723Z,74.64
2023-04-12T01:45:46.508Z,75.74
2023-04-12T01:48:16.684Z,76.71
2023-04-12T01:50:55.855Z,76.90
2023-04-12T01:53:29.411Z,77.07
2023-04-12T01:56:01.254Z,78.98
2023-04-12T01:58:31.224Z,78.37
2023-04-12T02:01:01.442Z,78.82
2023-04-12T02:03:31.691Z,79.65
2023-04-12T02:06:00.883Z,79.71
2023-04-12T02:08:28.997Z,80.36
2023-04-12T02:10:56.936Z,79.99
2023-04-12T02:13:25.811Z,81.14
2023-04-12T02:15:57.229Z,80.76
2023-04-12T02:18:25.484Z,81.02
2023-04-12T02:20:53.459Z,80.99
2023-04-12T02:23:21.758Z,81.04
2023-04-12T02:25:49.735Z,81.63
2023-04-12T02:28:17.816Z,82.16
2023-04-12T02:30:45.836Z,83.19
2023-04-12T02:33:15.836Z,83.39
2023-04-12T02:35:44.030Z,83.77
2023-04-12T02:38:12.212Z,82.92
2023-04-12T02:40:42.337Z,82.89
2023-04-12T02:43:10.552Z,84.67
2023-04-12T02:45:38.516Z,84.64
2023-04-12T02:48:07.129Z,84.65
2023-04-12T02:50:37.042Z,84.35
2023-04-12T02:53:05.067Z,84.02
2023-04-12T02:55:33.136Z,84.13
2023-04-12T02:58:01.289Z,85.34
2023-04-12T03:00:29.387Z,85.45
2023-04-12T03:02:59.143Z,85.53
2023-04-12T03:05:27.474Z,86.33
2023-04-12T03:07:56.967Z,86.48
2023-04-12T03:10:25.220Z,86.57
2023-04-12T03:12:53.236Z,86.74
2023-04-12T03:15:23.822Z,86.61
2023-04-12T03:17:52.017Z,85.96
2023-04-12T03:20:20.435Z,86.23
2023-04-12T03:22:48.694Z,86.78
2023-04-12T03:25:19.028Z,86.19
2023-04-12T03:27:47.414Z,86.67
2023-04-12T03:30:15.674Z,86.47
2023-04-12T03:32:44.210Z,86.45
2023-04-12T03:35:12.614Z,86.15
2023-04-12T03:37:42.849Z,86.59
2023-04-12T03:40:11.825Z,87.31
2023-04-12T03:42:41.476Z,87.72
2023-04-12T03:45:09.803Z,87.83
2023-04-12T03:47:38.275Z,88.01
2023-04-12T03:50:12.382Z,88.93
2023-04-12T03:52:40.830Z,87.84
2023-04-12T03:55:10.169Z,88.23
2023-04-12T03:57:38.200Z,89.48
2023-04-12T04:00:10.059Z,89.64
2023-04-12T04:02:38.662Z,89.54
2023-04-12T04:05:07.260Z,89.50
2023-04-12T04:07:36.584Z,89.75
2023-04-12T04:10:05.775Z,89.55
2023-04-12T04:12:33.949Z,88.92
2023-04-12T04:15:04.116Z,89.13
2023-04-12T04:17:33.546Z,88.50
2023-04-12T04:20:01.662Z,89.59
2023-04-12T04:22:29.975Z,88.95
2023-04-12T04:24:58.474Z,89.10
2023-04-12T04:27:26.442Z,88.83
2023-04-12T04:29:54.514Z,89.75
2023-04-12T04:32:22.610Z,89.81
2023-04-12T04:34:52.674Z,89.43
2023-04-12T04:37:21.420Z,90.28
2023-04-12T04:39:49.585Z,90.46
2023-04-12T04:42:17.657Z,91.73
2023-04-12T04:44:46.009Z,91.60
2023-04-12T04:47:14.123Z,91.02
2023-04-12T04:49:43.362Z,91.05
2023-04-12T04:52:13.359Z,91.24
2023-04-12T04:54:41.887Z,92.05
2023-04-12T04:57:11.710Z,91.58
2023-04-12T04:59:39.710Z,92.04
2023-04-12T05:02:07.818Z,91.54
2023-04-12T05:04:35.867Z,91.84
2023-04-12T05:07:04.416Z,91.79
2023-04-12T05:09:33.722Z,92.02
2023-04-12T05:12:01.783Z,92.06
2023-04-12T05:14:44.115Z,91.37
2023-04-12T05:17:14.994Z,91.13
2023-04-12T05:19:43.912Z,92.24
2023-04-12T05:22:13.094Z,92.10
2023-04-12T05:24:42.439Z,92.43
2023-04-12T05:27:10.739Z,92.80
2023-04-12T05:29:39.001Z,92.32
2023-04-12T05:32:07.467Z,92.25
2023-04-12T05:34:35.570Z,91.97
2023-04-12T05:37:04.107Z,93.08
2023-04-12T05:39:32.127Z,92.49
2023-04-12T05:42:01.562Z,91.85
2023-04-12T05:44:29.660Z,92.39
2023-04-12T05:46:57.663Z,92.69
2023-04-12T05:49:25.611Z,92.89
2023-04-12T05:51:53.691Z,92.44
2023-04-12T05:54:21.727Z,93.46
2023-04-12T05:56:49.956Z,92.45
2023-04-12T05:59:20.003Z,92.47
2023-04-12T06:01:48.134Z,93.03
2023-04-12T06:04:17.311Z,93.58
2023-04-12T06:06:45.457Z,93.38
2023-04-12T06:09:14.843Z,93.11
2023-04-12T06:11:42.920Z,93.00
2023-04-12T06:14:11.923Z,94.16
2023-04-12T06:16:42.146Z,93.13
2023-04-12T06:19:11.273Z,93.76
2023-04-12T06:21:39.382Z,94.42
2023-04-12T06:24:08.499Z,94.07
2023-04-12T06:26:39.634Z,94.22
2023-04-12T06:29:08.447Z,94.48
2023-04-12T06:31:36.779Z,94.51
2023-04-12T06:34:06.407Z,95.07
2023-04-12T06:36:34.556Z,93.96
2023-04-12T06:39:03.186Z,94.65
2023-04-12T06:41:31.300Z,94.49
2023-04-12T06:43:59.354Z,94.15
2023-04-12T06:46:28.466Z,94.09
2023-04-12T06:48:56.991Z,93.91
2023-04-12T06:51:26.681Z,94.88
2023-04-12T06:53:56.295Z,94.68
2023-04-12T06:56:24.674Z,94.71
2023-04-12T06:58:52.970Z,93.83
2023-04-12T07:01:21.179Z,94.65
2023-04-12T07:03:49.859Z,93.51
2023-04-12T07:06:25.092Z,94.13
2023-04-12T07:08:56.388Z,94.35
2023-04-12T07:11:25.538Z,93.53
2023-04-12T07:14:00.911Z,94.23
2023-04-12T07:16:35.305Z,94.17
2023-04-12T07:19:17.448Z,94.26
2023-04-12T07:21:53.938Z,94.35
2023-04-12T07:24:25.982Z,94.43
2023-04-12T07:27:01.605Z,93.40
2023-04-12T07:29:29.886Z,93.21
2023-04-12T07:31:58.390Z,93.30
2023-04-12T07:34:28.810Z,93.62
2023-04-12T07:36:58.502Z,93.37
2023-04-12T07:39:29.864Z,92.85
2023-04-12T07:41:58.442Z,92.70
2023-04-12T07:44:26.906Z,92.62
2023-04-12T07:46:55.146Z,93.57
2023-04-12T07:49:23.454Z,91.90
2023-04-12T07:51:51.754Z,92.40
2023-04-12T07:54:21.198Z,93.11
2023-04-12T07:57:09.352Z,92.79
2023-04-12T07:59:37.907Z,92.70
2023-04-12T08:02:06.503Z,93.05
2023-04-12T08:04:36.232Z,91.99
2023-04-12T08:07:04.611Z,92.15
2023-04-12T08:09:33.112Z,93.42
2023-04-12T08:12:03.663Z,92.64
2023-04-12T08:14:32.143Z,92.95
2023-04-12T08:17:00.803Z,92.89
2023-04-12T08:19:29.148Z,93.33
2023-04-12T08:21:57.731Z,93.29
2023-04-12T08:24:26.290Z,93.91
2023-04-12T08:26:54.560Z,93.87
2023-04-12T08:29:24.299Z,94.27
2023-04-12T08:31:53.072Z,93.75
2023-04-12T08:34:22.606Z,91.96
2023-04-12T08:36:50.969Z,92.10
2023-04-12T08:39:19.246Z,93.32
2023-04-12T08:41:47.970Z,93.08
2023-04-12T08:44:17.501Z,92.57
2023-04-12T08:46:47.899Z,93.46
2023-04-12T08:49:18.997Z,93.72
2023-04-12T08:51:47.686Z,93.71
2023-04-12T08:54:16.024Z,93.55
2023-04-12T08:56:46.118Z,93.58
2023-04-12T08:59:15.297Z,93.35
2023-04-12T09:01:43.968Z,92.76
2023-04-12T09:04:13.807Z,93.23
2023-04-12T09:06:42.530Z,93.34
2023-04-12T09:09:10.945Z,93.25
2023-04-12T09:11:39.069Z,93.28
2023-04-12T09:14:22.112Z,93.29
2023-04-12T09:16:50.763Z,98.84
2023-04-12T09:19:33.108Z,98.76
2023-04-12T09:22:01.921Z,99.12
2023-04-12T09:24:30.528Z,100.00
2023-04-12T09:27:06.074Z,99.12
2023-04-12T09:29:35.442Z,97.97
2023-04-12T09:32:05.716Z,98.85
2023-04-12T09:34:36.499Z,96.40
2023-04-12T09:37:14.624Z,95.71
2023-04-12T09:39:43.372Z,95.64
2023-04-12T09:42:29.729Z,94.41
2023-04-12T09:45:02.896Z,91.98
2023-04-12T09:47:41.274Z,92.00
2023-04-12T09:50:22.159Z,91.52
2023-04-12T09:52:50.715Z,91.63
2023-04-12T09:55:19.982Z,91.03
2023-04-12T09:57:51.560Z,89.72
2023-04-12T10:00:22.557Z,89.63
2023-04-12T10:02:54.758Z,89.32
2023-04-12T10:05:30.573Z,88.43
2023-04-12T10:07:59.407Z,88.90
2023-04-12T10:10:27.608Z,88.03
2023-04-12T10:12:56.086Z,88.75
2023-04-12T10:15:25.843Z,88.86
2023-04-12T10:17:54.942Z,88.58
2023-04-12T10:20:27.374Z,88.65
2023-04-12T10:23:00.146Z,88.81
2023-04-12T10:25:31.174Z,89.16
2023-04-12T10:28:15.732Z,89.20
2023-04-12T10:30:44.030Z,90.70
2023-04-12T10:33:19.268Z,91.35
2023-04-12T10:35:55.080Z,91.15
2023-04-12T10:38:27.484Z,91.66
2023-04-12T10:41:16.610Z,90.13
2023-04-12T10:43:45.426Z,89.06
2023-04-12T10:46:53.481Z,88.96
2023-04-12T10:49:21.861Z,88.70
2023-04-12T10:52:12.783Z,87.85
2023-04-12T10:54:42.968Z,87.85
2023-04-12T10:57:45.594Z,87.09
2023-04-12T11:00:16.323Z,86.71
2023-04-12T11:03:09.866Z,85.45
2023-04-12T11:06:09.200Z,85.77
2023-04-12T11:08:48.856Z,84.95
2023-04-12T11:11:23.589Z,84.91
2023-04-12T11:13:57.082Z,84.41
2023-04-12T11:16:25.319Z,84.34
2023-04-12T11:18:55.369Z,83.49
2023-04-12T11:21:23.885Z,84.35
2023-04-12T11:23:53.835Z,84.04
2023-04-12T11:26:23.296Z,84.86
2023-04-12T11:28:53.340Z,85.65
2023-04-12T11:31:23.225Z,85.68
2023-04-12T11:34:02.275Z,85.33
2023-04-12T11:36:30.560Z,84.15
2023-04-12T11:38:59.010Z,83.62
2023-04-12T11:41:30.248Z,86.88
2023-04-12T11:43:58.321Z,87.76
2023-04-12T11:46:28.307Z,87.49
2023-04-12T11:48:56.815Z,88.68
2023-04-12T11:51:29.932Z,87.40
2023-04-12T11:54:00.321Z,84.03
2023-04-12T11:56:31.999Z,81.80
2023-04-12T11:59:00.725Z,83.54
2023-04-12T12:01:29.377Z,84.98
2023-04-12T12:03:58.278Z,83.69
2023-04-12T12:06:27.908Z,80.93
2023-04-12T12:08:57.172Z,79.17
2023-04-12T12:11:26.719Z,76.97
2023-04-12T12:13:58.168Z,75.77
2023-04-12T12:16:28.042Z,74.67
2023-04-12T12:18:56.992Z,73.97
2023-04-12T12:21:27.412Z,74.64
2023-04-12T12:23:58.034Z,74.22
2023-04-12T12:26:28.830Z,73.43
2023-04-12T12:29:00.641Z,74.01
2023-04-12T12:31:29.718Z,74.29
2023-04-12T12:33:59.040Z,73.61
2023-04-12T12:36:32.897Z,73.05
2023-04-12T12:39:07.347Z,74.15
2023-04-12T12:41:35.982Z,74.42
2023-04-12T12:44:06.974Z,72.73
2023-04-12T12:49:07.583Z,73.07
2023-04-12T12:51:36.222Z,73.98
2023-04-12T12:54:28.414Z,73.36
2023-04-12T12:57:04.802Z,80.13
2023-04-12T12:59:34.300Z,77.17
2023-04-12T13:02:02.563Z,77.06
2023-04-12T13:04:30.876Z,72.75
2023-04-12T13:06:59.050Z,71.86
2023-04-12T13:09:28.341Z,71.61
2023-04-12T13:11:57.189Z,71.50
2023-04-12T13:14:25.223Z,71.20
2023-04-12T13:16:55.084Z,75.53
2023-04-12T13:19:26.236Z,78.19
2023-04-12T13:21:54.452Z,71.94
2023-04-12T13:24:23.224Z,71.78
2023-04-12T13:26:51.830Z,73.41
2023-04-12T13:29:20.000Z,75.68
2023-04-12T13:31:51.110Z,72.22
2023-04-12T13:34:20.615Z,72.66
2023-04-12T13:36:48.669Z,69.96
2023-04-12T13:39:17.229Z,69.23
2023-04-12T13:41:47.693Z,68.98
2023-04-12T13:44:16.322Z,67.87
2023-04-12T13:46:44.432Z,67.66
2023-04-12T13:49:12.738Z,68.10
2023-04-12T13:51:42.205Z,68.37
2023-04-12T13:54:10.414Z,67.76
2023-04-12T13:56:38.389Z,66.08
2023-04-12T13:59:06.521Z,66.91
2023-04-12T14:01:36.212Z,66.60
2023-04-12T14:04:07.554Z,66.72
2023-04-12T14:06:36.545Z,66.64
2023-04-12T14:09:06.968Z,65.31
2023-04-12T14:11:47.254Z,66.15
2023-04-12T14:14:16.780Z,66.31
2023-04-12T14:16:45.871Z,66.30
2023-04-12T14:19:14.050Z,66.87
2023-04-12T14:21:42.144Z,67.47
2023-04-12T14:24:11.575Z,67.43
2023-04-12T14:26:41.334Z,67.95
2023-04-12T14:29:09.897Z,66.83
2023-04-12T14:31:38.732Z,67.15
2023-04-12T14:34:08.832Z,66.07
2023-04-12T14:36:37.208Z,65.95
2023-04-12T14:39:08.518Z,64.90
2023-04-12T14:41:40.076Z,64.93
2023-04-12T14:44:08.516Z,64.06
2023-04-12T14:46:36.879Z,63.94
2023-04-12T14:49:05.392Z,64.09
2023-04-12T14:51:34.000Z,64.24
2023-04-12T14:54:02.340Z,64.10
2023-04-12T14:56:34.401Z,63.78
2023-04-12T14:59:05.893Z,64.72
2023-04-12T15:01:35.283Z,64.36
2023-04-12T15:04:06.781Z,63.45
2023-04-12T15:06:43.899Z,63.56
2023-04-12T15:09:12.824Z,63.86
2023-04-12T15:11:46.412Z,62.82
2023-04-12T15:14:20.626Z,61.09
2023-04-12T15:16:50.674Z,61.89
2023-04-12T15:19:22.800Z,61.94
2023-04-12T15:21:54.517Z,63.01
2023-04-12T15:24:22.973Z,62.15
2023-04-12T15:26:52.975Z,62.14
2023-04-12T15:29:24.420Z,62.32
2023-04-12T15:31:52.895Z,66.04
2023-04-12T15:34:23.585Z,72.34
2023-04-12T15:36:52.021Z,76.30
2023-04-12T15:39:20.394Z,78.46
2023-04-12T15:41:48.449Z,79.75
2023-04-12T15:44:17.088Z,79.80
2023-04-12T15:46:56.050Z,81.01
2023-04-12T15:49:33.613Z,82.52
2023-04-12T15:52:04.958Z,83.05
2023-04-12T15:54:33.098Z,83.04
2023-04-12T15:57:02.666Z,83.81
2023-04-12T15:59:31.062Z,84.26
2023-04-12T16:02:00.702Z,84.03
2023-04-12T16:04:29.399Z,84.50
2023-04-12T16:07:02.373Z,84.61
2023-04-12T16:09:32.363Z,84.49
2023-04-12T16:12:00.479Z,84.42
2023-04-12T16:14:28.766Z,84.22
2023-04-12T16:16:58.459Z,83.90
2023-04-12T16:19:28.323Z,84.06
2023-04-12T16:21:56.604Z,84.82
2023-04-12T16:24:24.565Z,85.14
2023-04-12T16:26:53.013Z,85.97
2023-04-12T16:29:21.050Z,85.35
2023-04-12T16:31:49.173Z,85.70
2023-04-12T16:34:21.815Z,85.60
2023-04-12T16:36:52.602Z,85.87
2023-04-12T16:39:20.593Z,86.23
2023-04-12T16:41:48.615Z,85.72
2023-04-12T16:44:19.208Z,85.62
2023-04-12T16:46:48.947Z,85.85
2023-04-12T16:49:19.689Z,85.46
2023-04-12T16:51:48.015Z,85.70
2023-04-12T16:54:17.538Z,85.37
2023-04-12T16:56:45.525Z,84.94
2023-04-12T16:59:13.590Z,84.59
2023-04-12T17:01:42.438Z,84.82
2023-04-12T17:04:11.210Z,84.98
2023-04-12T17:06:41.003Z,84.71
2023-04-12T17:09:09.815Z,85.23
2023-04-12T17:11:39.327Z,85.40
2023-04-12T17:14:07.733Z,86.01
2023-04-12T17:16:35.917Z,85.98
2023-04-12T17:19:04.025Z,85.06
2023-04-12T17:21:40.917Z,85.84
2023-04-12T17:24:09.311Z,85.74
2023-04-12T17:26:37.446Z,85.95
2023-04-12T17:29:07.028Z,85.54
2023-04-12T17:31:35.831Z,84.89
2023-04-12T17:34:04.068Z,85.17
2023-04-12T17:36:34.013Z,84.97
2023-04-12T17:39:04.829Z,84.97
2023-04-12T17:41:32.778Z,84.63
2023-04-12T17:44:01.142Z,84.50
2023-04-12T17:46:30.662Z,84.78
2023-04-12T17:49:00.012Z,84.89
2023-04-12T17:51:29.602Z,84.67
2023-04-12T17:53:58.397Z,85.42
2023-04-12T17:56:27.407Z,85.52
2023-04-12T17:58:55.677Z,85.54
2023-04-12T18:01:23.929Z,85.74
2023-04-12T18:03:53.951Z,84.94
2023-04-12T18:06:24.034Z,85.11
2023-04-12T18:08:52.610Z,85.42
2023-04-12T18:11:21.091Z,85.33
2023-04-12T18:13:49.119Z,85.32
2023-04-12T18:16:17.146Z,84.68
2023-04-12T18:18:47.175Z,85.29
2023-04-12T18:21:21.039Z,85.62
2023-04-12T18:23:49.264Z,86.15
2023-04-12T18:26:17.601Z,86.35
2023-04-12T18:28:46.043Z,86.42
2023-04-12T18:31:15.806Z,86.32
2023-04-12T18:33:45.164Z,87.14
2023-04-12T18:36:13.209Z,87.58
2023-04-12T18:38:44.814Z,87.67
2023-04-12T18:41:14.278Z,87.33
2023-04-12T18:43:42.958Z,87.59
2023-04-12T18:46:16.493Z,87.34
2023-04-12T18:48:46.008Z,87.69
2023-04-12T18:51:15.477Z,87.24
2023-04-12T18:53:44.969Z,87.28
2023-04-12T18:56:14.355Z,87.20
2023-04-12T18:58:54.473Z,87.46
2023-04-12T19:01:25.913Z,86.83
2023-04-12T19:03:55.481Z,87.03
2023-04-12T19:06:24.428Z,86.83
2023-04-12T19:08:53.840Z,87.06
2023-04-12T19:11:23.378Z,86.56
2023-04-12T19:13:54.049Z,86.96
2023-04-12T19:16:22.382Z,86.10
2023-04-12T19:18:50.639Z,86.40
2023-04-12T19:21:18.730Z,85.76
2023-04-12T19:23:46.876Z,86.27
2023-04-12T19:26:17.219Z,86.00
2023-04-12T19:28:46.210Z,86.26
2023-04-12T19:31:15.939Z,86.15
2023-04-12T19:33:44.155Z,85.85
2023-04-12T19:36:13.321Z,85.56
2023-04-12T19:38:47.590Z,85.62
2023-04-12T19:41:20.462Z,85.70
2023-04-12T19:43:48.774Z,85.39
2023-04-12T19:46:17.794Z,85.99
2023-04-12T19:48:47.135Z,85.48
2023-04-12T19:51:15.474Z,85.20
2023-04-12T19:53:46.316Z,84.88
2023-04-12T19:56:16.540Z,84.61
2023-04-12T19:58:49.920Z,84.96
2023-04-12T20:01:19.524Z,85.03
2023-04-12T20:03:48.004Z,85.33
2023-04-12T20:06:18.976Z,85.16
2023-04-12T20:08:51.495Z,85.13
2023-04-12T20:11:21.672Z,85.13
2023-04-12T20:13:58.726Z,84.92
2023-04-12T20:16:27.035Z,85.10
2023-04-12T20:18:57.751Z,85.61
2023-04-12T20:21:26.508Z,85.74
2023-04-12T20:23:54.641Z,85.85
2023-04-12T20:26:23.210Z,85.15
2023-04-12T20:29:03.178Z,85.92
2023-04-12T20:31:32.363Z,85.84
2023-04-12T20:34:00.622Z,85.74
2023-04-12T20:36:29.698Z,86.13
2023-04-12T20:38:58.181Z,85.68
2023-04-12T20:41:26.485Z,84.82
2023-04-12T20:43:56.076Z,85.41
2023-04-12T20:46:26.011Z,84.89
2023-04-12T20:48:56.501Z,85.57
2023-04-12T20:51:25.208Z,85.30
2023-04-12T20:53:59.466Z,84.76
2023-04-12T20:56:33.644Z,85.32
2023-04-12T20:59:09.015Z,85.62
2023-04-12T21:01:44.595Z,84.73
2023-04-12T21:04:16.766Z,83.59
2023-04-12T21:06:49.168Z,86.94
2023-04-12T21:09:18.662Z,88.56
2023-04-12T21:11:46.835Z,89.58
2023-04-12T21:14:16.438Z,89.85
2023-04-12T21:16:44.719Z,91.00
2023-04-12T21:19:12.917Z,91.50
2023-04-12T21:21:41.342Z,92.20
2023-04-12T21:24:09.396Z,91.93
2023-04-12T21:26:37.690Z,89.75
2023-04-12T21:29:05.802Z,89.73
2023-04-12T21:31:37.283Z,89.32
2023-04-12T21:34:05.434Z,89.15
2023-04-12T21:36:33.541Z,88.56
2023-04-12T21:39:01.767Z,88.31
2023-04-12T21:41:29.928Z,88.27
2023-04-12T21:43:58.201Z,88.21
2023-04-12T21:46:27.814Z,87.28
2023-04-12T21:48:57.643Z,86.82
2023-04-12T21:51:26.529Z,87.66
2023-04-12T21:53:54.623Z,87.90
2023-04-12T21:56:23.127Z,88.01
2023-04-12T21:58:51.495Z,87.24
2023-04-12T22:01:19.714Z,87.64
2023-04-12T22:03:48.134Z,87.33
2023-04-12T22:06:19.703Z,87.26
2023-04-12T22:08:48.381Z,87.56
2023-04-12T22:11:18.647Z,87.43
2023-04-12T22:13:47.489Z,87.60
2023-04-12T22:16:17.041Z,87.47
2023-04-12T22:18:45.852Z,87.90
2023-04-12T22:21:15.477Z,87.05
2023-04-12T22:23:45.963Z,87.39
2023-04-12T22:26:14.483Z,87.56
2023-04-12T22:28:44.373Z,87.74
2023-04-12T22:31:16.158Z,88.03
2023-04-12T22:33:47.972Z,87.64
2023-04-12T22:36:16.397Z,88.44
2023-04-12T22:38:47.708Z,87.79
2023-04-12T22:41:17.217Z,87.79
2023-04-12T22:43:47.838Z,87.91
2023-04-12T22:46:16.846Z,87.51
2023-04-12T22:48:46.098Z,87.94
2023-04-12T22:51:14.478Z,87.34
2023-04-12T22:53:43.653Z,87.37
2023-04-12T22:56:13.722Z,87.17
2023-04-12T22:58:43.262Z,86.81
2023-04-12T23:01:11.578Z,87.41
2023-04-12T23:03:41.726Z,87.35
2023-04-12T23:06:12.843Z,88.18
2023-04-12T23:08:41.185Z,87.56
2023-04-12T23:11:09.377Z,87.55
2023-04-12T23:13:39.141Z,87.98
2023-04-12T23:16:09.264Z,87.99
2023-04-12T23:18:37.923Z,87.87
2023-04-12T23:21:06.738Z,88.00
2023-04-12T23:23:34.986Z,87.63
2023-04-12T23:26:03.200Z,87.36
2023-04-12T23:28:31.602Z,87.45
2023-04-12T23:31:02.218Z,87.39
2023-04-12T23:33:30.653Z,87.64
2023-04-12T23:36:02.947Z,86.48
2023-04-12T23:38:33.961Z,86.95
2023-04-12T23:41:04.203Z,87.36
2023-04-12T23:43:36.584Z,87.47
2023-04-12T23:46:06.973Z,86.96
2023-04-12T23:48:35.254Z,86.69
2023-04-12T23:51:03.431Z,86.77
2023-04-12T23:53:31.596Z,86.36
2023-04-12T23:55:59.914Z,86.10
2023-04-12T23:58:28.149Z,86.33
